sensor_id;sensor_type;location;lat;lon;timestamp;temperature;humidity
70051;SHT30;57391;51.306;22.680;2023-02-18T00:01:35;9.57;81.33
70051;SHT30;57391;51.306;22.680;2023-02-18T00:04:03;9.55;80.46
70051;SHT30;57391;51.306;22.680;2023-02-18T00:06:34;9.51;77.93
70051;SHT30;57391;51.306;22.680;2023-02-18T00:09:04;9.50;74.99
70051;SHT30;57391;51.306;22.680;2023-02-18T00:11:33;9.48;74.74
70051;SHT30;57391;51.306;22.680;2023-02-18T00:14:03;9.43;72.51
70051;SHT30;57391;51.306;22.680;2023-02-18T00:16:38;9.37;70.14
70051;SHT30;57391;51.306;22.680;2023-02-18T00:19:06;9.36;66.40
70051;SHT30;57391;51.306;22.680;2023-02-18T00:21:38;9.31;65.20
70051;SHT30;57391;51.306;22.680;2023-02-18T00:24:05;9.26;63.36
70051;SHT30;57391;51.306;22.680;2023-02-18T00:26:34;9.20;63.20
70051;SHT30;57391;51.306;22.680;2023-02-18T00:29:04;9.11;61.90
70051;SHT30;57391;51.306;22.680;2023-02-18T00:31:32;9.06;61.51
70051;SHT30;57391;51.306;22.680;2023-02-18T00:34:02;9.00;60.85
70051;SHT30;57391;51.306;22.680;2023-02-18T00:36:31;8.95;59.43
70051;SHT30;57391;51.306;22.680;2023-02-18T00:39:03;8.89;59.90
70051;SHT30;57391;51.306;22.680;2023-02-18T00:41:33;8.83;58.91
70051;SHT30;57391;51.306;22.680;2023-02-18T00:44:02;8.79;58.02
70051;SHT30;57391;51.306;22.680;2023-02-18T00:46:30;8.75;58.30
70051;SHT30;57391;51.306;22.680;2023-02-18T00:49:00;8.70;59.11
70051;SHT30;57391;51.306;22.680;2023-02-18T00:51:30;8.63;58.35
70051;SHT30;57391;51.306;22.680;2023-02-18T00:53:57;8.59;58.44
70051;SHT30;57391;51.306;22.680;2023-02-18T00:56:25;8.57;58.47
70051;SHT30;57391;51.306;22.680;2023-02-18T00:58:53;8.52;58.08
70051;SHT30;57391;51.306;22.680;2023-02-18T01:01:20;8.49;58.12
70051;SHT30;57391;51.306;22.680;2023-02-18T01:03:47;8.47;57.84
70051;SHT30;57391;51.306;22.680;2023-02-18T01:06:15;8.45;57.58
70051;SHT30;57391;51.306;22.680;2023-02-18T01:08:43;8.43;57.36
70051;SHT30;57391;51.306;22.680;2023-02-18T01:11:11;8.40;57.68
70051;SHT30;57391;51.306;22.680;2023-02-18T01:13:40;8.36;58.44
70051;SHT30;57391;51.306;22.680;2023-02-18T01:16:09;8.28;58.39
70051;SHT30;57391;51.306;22.680;2023-02-18T01:18:37;8.25;58.20
70051;SHT30;57391;51.306;22.680;2023-02-18T01:21:05;8.22;58.42
70051;SHT30;57391;51.306;22.680;2023-02-18T01:23:36;8.15;58.49
70051;SHT30;57391;51.306;22.680;2023-02-18T01:26:05;8.13;58.04
70051;SHT30;57391;51.306;22.680;2023-02-18T01:28:33;8.09;58.80
70051;SHT30;57391;51.306;22.680;2023-02-18T01:31:08;8.04;58.94
70051;SHT30;57391;51.306;22.680;2023-02-18T01:33:37;8.02;59.19
70051;SHT30;57391;51.306;22.680;2023-02-18T01:36:05;7.97;58.85
70051;SHT30;57391;51.306;22.680;2023-02-18T01:38:33;7.95;59.20
70051;SHT30;57391;51.306;22.680;2023-02-18T01:41:01;7.91;59.55
70051;SHT30;57391;51.306;22.680;2023-02-18T01:43:29;7.87;59.11
70051;SHT30;57391;51.306;22.680;2023-02-18T01:45:58;7.88;59.20
70051;SHT30;57391;51.306;22.680;2023-02-18T01:51:16;7.83;59.86
70051;SHT30;57391;51.306;22.680;2023-02-18T01:53:57;7.80;60.18
70051;SHT30;57391;51.306;22.680;2023-02-18T01:59:25;7.69;60.65
70051;SHT30;57391;51.306;22.680;2023-02-18T02:01:58;7.64;61.32
70051;SHT30;57391;51.306;22.680;2023-02-18T02:04:29;7.59;61.53
70051;SHT30;57391;51.306;22.680;2023-02-18T02:06:56;7.55;61.67
70051;SHT30;57391;51.306;22.680;2023-02-18T02:09:24;7.51;62.09
70051;SHT30;57391;51.306;22.680;2023-02-18T02:15:20;7.41;61.94
70051;SHT30;57391;51.306;22.680;2023-02-18T02:35:35;7.21;63.16
70051;SHT30;57391;51.306;22.680;2023-02-18T02:38:32;7.19;63.20
70051;SHT30;57391;51.306;22.680;2023-02-18T02:47:08;7.13;63.49
70051;SHT30;57391;51.306;22.680;2023-02-18T02:52:39;7.14;63.38
70051;SHT30;57391;51.306;22.680;2023-02-18T02:55:15;7.14;62.86
70051;SHT30;57391;51.306;22.680;2023-02-18T02:57:46;7.16;62.49
70051;SHT30;57391;51.306;22.680;2023-02-18T03:00:22;7.19;62.76
70051;SHT30;57391;51.306;22.680;2023-02-18T03:09:29;7.18;63.06
70051;SHT30;57391;51.306;22.680;2023-02-18T03:12:36;7.18;63.12
70051;SHT30;57391;51.306;22.680;2023-02-18T03:21:04;7.21;63.93
70051;SHT30;57391;51.306;22.680;2023-02-18T03:24:15;7.23;63.95
70051;SHT30;57391;51.306;22.680;2023-02-18T03:26:58;7.22;64.29
70051;SHT30;57391;51.306;22.680;2023-02-18T03:29:36;7.20;64.03
70051;SHT30;57391;51.306;22.680;2023-02-18T03:32:05;7.19;63.63
70051;SHT30;57391;51.306;22.680;2023-02-18T03:34:37;7.19;63.20
70051;SHT30;57391;51.306;22.680;2023-02-18T03:37:10;7.18;63.37
70051;SHT30;57391;51.306;22.680;2023-02-18T03:39:40;7.17;62.64
70051;SHT30;57391;51.306;22.680;2023-02-18T03:42:11;7.17;62.49
70051;SHT30;57391;51.306;22.680;2023-02-18T03:44:38;7.18;62.47
70051;SHT30;57391;51.306;22.680;2023-02-18T03:47:05;7.18;61.37
70051;SHT30;57391;51.306;22.680;2023-02-18T03:49:33;7.19;61.11
70051;SHT30;57391;51.306;22.680;2023-02-18T03:52:00;7.20;61.19
70051;SHT30;57391;51.306;22.680;2023-02-18T03:54:27;7.20;61.11
70051;SHT30;57391;51.306;22.680;2023-02-18T03:56:54;7.21;60.41
70051;SHT30;57391;51.306;22.680;2023-02-18T03:59:21;7.22;60.33
70051;SHT30;57391;51.306;22.680;2023-02-18T04:01:48;7.24;59.96
70051;SHT30;57391;51.306;22.680;2023-02-18T04:04:15;7.25;60.49
70051;SHT30;57391;51.306;22.680;2023-02-18T04:06:42;7.25;60.63
70051;SHT30;57391;51.306;22.680;2023-02-18T04:09:09;7.23;60.49
70051;SHT30;57391;51.306;22.680;2023-02-18T04:11:37;7.24;60.64
70051;SHT30;57391;51.306;22.680;2023-02-18T04:14:06;7.23;60.86
70051;SHT30;57391;51.306;22.680;2023-02-18T04:16:34;7.24;61.18
70051;SHT30;57391;51.306;22.680;2023-02-18T04:19:01;7.23;60.99
70051;SHT30;57391;51.306;22.680;2023-02-18T04:21:28;7.22;60.54
70051;SHT30;57391;51.306;22.680;2023-02-18T04:23:54;7.23;61.12
70051;SHT30;57391;51.306;22.680;2023-02-18T04:26:22;7.22;61.86
70051;SHT30;57391;51.306;22.680;2023-02-18T04:28:49;7.22;62.28
70051;SHT30;57391;51.306;22.680;2023-02-18T04:31:16;7.20;62.64
70051;SHT30;57391;51.306;22.680;2023-02-18T04:33:43;7.17;62.98
70051;SHT30;57391;51.306;22.680;2023-02-18T04:36:10;7.14;62.95
70051;SHT30;57391;51.306;22.680;2023-02-18T04:38:37;7.13;62.98
70051;SHT30;57391;51.306;22.680;2023-02-18T04:41:04;7.10;61.94
70051;SHT30;57391;51.306;22.680;2023-02-18T04:43:32;7.09;61.81
70051;SHT30;57391;51.306;22.680;2023-02-18T04:45:58;7.07;61.46
70051;SHT30;57391;51.306;22.680;2023-02-18T04:48:26;7.07;61.98
70051;SHT30;57391;51.306;22.680;2023-02-18T04:50:53;7.04;62.49
70051;SHT30;57391;51.306;22.680;2023-02-18T04:53:20;7.01;63.07
70051;SHT30;57391;51.306;22.680;2023-02-18T04:55:50;6.97;63.12
70051;SHT30;57391;51.306;22.680;2023-02-18T04:58:20;6.95;63.24
70051;SHT30;57391;51.306;22.680;2023-02-18T05:00:48;6.91;63.58
70051;SHT30;57391;51.306;22.680;2023-02-18T05:03:15;6.88;63.55
70051;SHT30;57391;51.306;22.680;2023-02-18T05:05:43;6.86;63.63
70051;SHT30;57391;51.306;22.680;2023-02-18T05:08:11;6.82;63.95
70051;SHT30;57391;51.306;22.680;2023-02-18T05:10:38;6.78;64.19
70051;SHT30;57391;51.306;22.680;2023-02-18T05:13:05;6.75;64.08
70051;SHT30;57391;51.306;22.680;2023-02-18T05:15:32;6.71;63.77
70051;SHT30;57391;51.306;22.680;2023-02-18T05:17:59;6.66;63.89
70051;SHT30;57391;51.306;22.680;2023-02-18T05:20:26;6.63;64.14
70051;SHT30;57391;51.306;22.680;2023-02-18T05:22:53;6.60;63.34
70051;SHT30;57391;51.306;22.680;2023-02-18T05:25:20;6.59;63.54
70051;SHT30;57391;51.306;22.680;2023-02-18T05:27:48;6.57;63.46
70051;SHT30;57391;51.306;22.680;2023-02-18T05:30:15;6.56;63.80
70051;SHT30;57391;51.306;22.680;2023-02-18T05:32:42;6.54;63.63
70051;SHT30;57391;51.306;22.680;2023-02-18T05:35:09;6.53;63.96
70051;SHT30;57391;51.306;22.680;2023-02-18T05:37:36;6.51;64.08
70051;SHT30;57391;51.306;22.680;2023-02-18T05:40:04;6.48;64.04
70051;SHT30;57391;51.306;22.680;2023-02-18T05:42:34;6.46;63.63
70051;SHT30;57391;51.306;22.680;2023-02-18T05:45:01;6.45;63.43
70051;SHT30;57391;51.306;22.680;2023-02-18T05:47:29;6.46;63.86
70051;SHT30;57391;51.306;22.680;2023-02-18T05:49:56;6.45;63.41
70051;SHT30;57391;51.306;22.680;2023-02-18T05:52:23;6.44;63.35
70051;SHT30;57391;51.306;22.680;2023-02-18T05:54:51;6.42;62.95
70051;SHT30;57391;51.306;22.680;2023-02-18T05:57:18;6.42;63.24
70051;SHT30;57391;51.306;22.680;2023-02-18T05:59:45;6.42;63.41
70051;SHT30;57391;51.306;22.680;2023-02-18T06:02:12;6.42;63.42
70051;SHT30;57391;51.306;22.680;2023-02-18T06:04:40;6.41;63.36
70051;SHT30;57391;51.306;22.680;2023-02-18T06:07:07;6.41;63.42
70051;SHT30;57391;51.306;22.680;2023-02-18T06:09:34;6.42;63.27
70051;SHT30;57391;51.306;22.680;2023-02-18T06:12:01;6.41;63.27
70051;SHT30;57391;51.306;22.680;2023-02-18T06:14:28;6.42;63.41
70051;SHT30;57391;51.306;22.680;2023-02-18T06:16:55;6.43;63.40
70051;SHT30;57391;51.306;22.680;2023-02-18T06:19:22;6.43;63.65
70051;SHT30;57391;51.306;22.680;2023-02-18T06:21:50;6.43;63.71
70051;SHT30;57391;51.306;22.680;2023-02-18T06:24:16;6.41;64.02
70051;SHT30;57391;51.306;22.680;2023-02-18T06:26:43;6.41;64.04
70051;SHT30;57391;51.306;22.680;2023-02-18T06:29:10;6.40;63.78
70051;SHT30;57391;51.306;22.680;2023-02-18T06:31:37;6.41;64.24
70051;SHT30;57391;51.306;22.680;2023-02-18T06:34:04;6.40;64.12
70051;SHT30;57391;51.306;22.680;2023-02-18T06:36:31;6.42;64.01
70051;SHT30;57391;51.306;22.680;2023-02-18T06:38:58;6.42;63.89
70051;SHT30;57391;51.306;22.680;2023-02-18T06:41:27;6.43;63.81
70051;SHT30;57391;51.306;22.680;2023-02-18T06:43:54;6.44;63.87
70051;SHT30;57391;51.306;22.680;2023-02-18T06:46:21;6.46;63.88
70051;SHT30;57391;51.306;22.680;2023-02-18T06:48:48;6.47;63.99
70051;SHT30;57391;51.306;22.680;2023-02-18T06:51:15;6.46;64.18
70051;SHT30;57391;51.306;22.680;2023-02-18T06:53:44;6.46;63.78
70051;SHT30;57391;51.306;22.680;2023-02-18T06:56:11;6.45;63.92
70051;SHT30;57391;51.306;22.680;2023-02-18T06:58:38;6.45;64.05
70051;SHT30;57391;51.306;22.680;2023-02-18T07:01:05;6.44;64.15
70051;SHT30;57391;51.306;22.680;2023-02-18T07:03:32;6.47;64.50
70051;SHT30;57391;51.306;22.680;2023-02-18T07:05:59;6.47;63.93
70051;SHT30;57391;51.306;22.680;2023-02-18T07:08:27;6.45;63.62
70051;SHT30;57391;51.306;22.680;2023-02-18T07:10:56;6.44;63.62
70051;SHT30;57391;51.306;22.680;2023-02-18T07:13:22;6.44;63.60
70051;SHT30;57391;51.306;22.680;2023-02-18T07:15:50;6.43;63.50
70051;SHT30;57391;51.306;22.680;2023-02-18T07:18:16;6.43;63.63
70051;SHT30;57391;51.306;22.680;2023-02-18T07:20:45;6.43;63.51
70051;SHT30;57391;51.306;22.680;2023-02-18T07:23:12;6.44;63.48
70051;SHT30;57391;51.306;22.680;2023-02-18T07:25:39;6.43;63.42
70051;SHT30;57391;51.306;22.680;2023-02-18T07:28:06;6.44;63.36
70051;SHT30;57391;51.306;22.680;2023-02-18T07:30:33;6.45;63.64
70051;SHT30;57391;51.306;22.680;2023-02-18T07:33:00;6.46;63.58
70051;SHT30;57391;51.306;22.680;2023-02-18T07:35:27;6.47;63.40
70051;SHT30;57391;51.306;22.680;2023-02-18T07:37:54;6.48;63.65
70051;SHT30;57391;51.306;22.680;2023-02-18T07:40:23;6.48;63.16
70051;SHT30;57391;51.306;22.680;2023-02-18T07:42:50;6.49;62.82
70051;SHT30;57391;51.306;22.680;2023-02-18T07:45:19;6.49;63.34
70051;SHT30;57391;51.306;22.680;2023-02-18T07:47:45;6.51;62.97
70051;SHT30;57391;51.306;22.680;2023-02-18T07:50:13;6.51;62.71
70051;SHT30;57391;51.306;22.680;2023-02-18T07:52:39;6.52;62.70
70051;SHT30;57391;51.306;22.680;2023-02-18T07:55:07;6.53;62.48
70051;SHT30;57391;51.306;22.680;2023-02-18T07:57:34;6.54;62.71
70051;SHT30;57391;51.306;22.680;2023-02-18T08:00:22;6.57;62.36
70051;SHT30;57391;51.306;22.680;2023-02-18T08:02:49;6.57;61.94
70051;SHT30;57391;51.306;22.680;2023-02-18T08:05:16;6.58;62.23
70051;SHT30;57391;51.306;22.680;2023-02-18T08:07:43;6.59;61.73
70051;SHT30;57391;51.306;22.680;2023-02-18T08:10:10;6.60;62.17
70051;SHT30;57391;51.306;22.680;2023-02-18T08:12:37;6.62;62.17
70051;SHT30;57391;51.306;22.680;2023-02-18T08:15:04;6.63;61.46
70051;SHT30;57391;51.306;22.680;2023-02-18T08:17:31;6.64;61.43
70051;SHT30;57391;51.306;22.680;2023-02-18T08:19:59;6.66;61.38
70051;SHT30;57391;51.306;22.680;2023-02-18T08:22:26;6.70;61.54
70051;SHT30;57391;51.306;22.680;2023-02-18T08:24:53;6.76;61.58
70051;SHT30;57391;51.306;22.680;2023-02-18T08:27:22;6.81;61.37
70051;SHT30;57391;51.306;22.680;2023-02-18T08:29:49;6.86;61.16
70051;SHT30;57391;51.306;22.680;2023-02-18T08:32:16;6.89;61.31
70051;SHT30;57391;51.306;22.680;2023-02-18T08:34:43;6.93;60.73
70051;SHT30;57391;51.306;22.680;2023-02-18T08:37:10;6.95;60.67
70051;SHT30;57391;51.306;22.680;2023-02-18T08:39:37;6.99;60.90
70051;SHT30;57391;51.306;22.680;2023-02-18T08:42:05;7.05;60.31
70051;SHT30;57391;51.306;22.680;2023-02-18T08:44:32;7.09;59.59
70051;SHT30;57391;51.306;22.680;2023-02-18T08:46:59;7.13;59.73
70051;SHT30;57391;51.306;22.680;2023-02-18T08:49:26;7.19;59.91
70051;SHT30;57391;51.306;22.680;2023-02-18T08:51:54;7.28;59.59
70051;SHT30;57391;51.306;22.680;2023-02-18T08:54:21;7.32;58.88
70051;SHT30;57391;51.306;22.680;2023-02-18T08:56:48;7.38;59.35
70051;SHT30;57391;51.306;22.680;2023-02-18T08:59:15;7.48;58.64
70051;SHT30;57391;51.306;22.680;2023-02-18T09:01:42;7.51;58.69
70051;SHT30;57391;51.306;22.680;2023-02-18T09:04:09;7.56;59.58
70051;SHT30;57391;51.306;22.680;2023-02-18T09:06:37;7.63;59.51
70051;SHT30;57391;51.306;22.680;2023-02-18T09:09:05;7.64;58.43
70051;SHT30;57391;51.306;22.680;2023-02-18T09:11:32;7.63;58.46
70051;SHT30;57391;51.306;22.680;2023-02-18T09:14:00;7.66;58.78
70051;SHT30;57391;51.306;22.680;2023-02-18T09:16:27;7.68;58.44
70051;SHT30;57391;51.306;22.680;2023-02-18T09:18:55;7.70;59.20
70051;SHT30;57391;51.306;22.680;2023-02-18T09:21:24;7.72;58.64
70051;SHT30;57391;51.306;22.680;2023-02-18T09:23:52;7.69;58.39
70051;SHT30;57391;51.306;22.680;2023-02-18T09:26:20;7.68;57.40
70051;SHT30;57391;51.306;22.680;2023-02-18T09:28:52;7.67;58.21
70051;SHT30;57391;51.306;22.680;2023-02-18T09:31:23;7.66;58.29
70051;SHT30;57391;51.306;22.680;2023-02-18T09:33:53;7.65;58.51
70051;SHT30;57391;51.306;22.680;2023-02-18T09:36:24;7.64;57.60
70051;SHT30;57391;51.306;22.680;2023-02-18T09:38:52;7.64;57.22
70051;SHT30;57391;51.306;22.680;2023-02-18T09:41:27;7.65;57.29
70051;SHT30;57391;51.306;22.680;2023-02-18T09:44:12;7.65;57.45
70051;SHT30;57391;51.306;22.680;2023-02-18T09:46:53;7.65;57.75
70051;SHT30;57391;51.306;22.680;2023-02-18T09:49:26;7.67;57.53
70051;SHT30;57391;51.306;22.680;2023-02-18T09:52:04;7.70;57.40
70051;SHT30;57391;51.306;22.680;2023-02-18T09:54:49;7.71;56.94
70051;SHT30;57391;51.306;22.680;2023-02-18T09:57:25;7.73;57.71
70051;SHT30;57391;51.306;22.680;2023-02-18T10:00:04;7.84;57.56
70051;SHT30;57391;51.306;22.680;2023-02-18T10:02:40;8.02;57.17
70051;SHT30;57391;51.306;22.680;2023-02-18T10:05:23;8.11;57.33
70051;SHT30;57391;51.306;22.680;2023-02-18T10:07:57;8.13;56.29
70051;SHT30;57391;51.306;22.680;2023-02-18T10:10:35;8.13;56.84
70051;SHT30;57391;51.306;22.680;2023-02-18T10:13:14;8.16;57.11
70051;SHT30;57391;51.306;22.680;2023-02-18T10:15:49;8.15;55.69
70051;SHT30;57391;51.306;22.680;2023-02-18T10:18:28;8.15;56.00
70051;SHT30;57391;51.306;22.680;2023-02-18T10:21:09;8.22;56.44
70051;SHT30;57391;51.306;22.680;2023-02-18T10:23:42;8.34;56.13
70051;SHT30;57391;51.306;22.680;2023-02-18T10:26:28;8.48;55.30
70051;SHT30;57391;51.306;22.680;2023-02-18T10:29:00;8.55;54.91
70051;SHT30;57391;51.306;22.680;2023-02-18T10:31:35;8.61;55.25
70051;SHT30;57391;51.306;22.680;2023-02-18T10:48:46;9.11;52.34
70051;SHT30;57391;51.306;22.680;2023-02-18T10:51:52;9.16;53.82
70051;SHT30;57391;51.306;22.680;2023-02-18T10:54:24;9.17;53.14
70051;SHT30;57391;51.306;22.680;2023-02-18T10:57:18;9.19;53.71
70051;SHT30;57391;51.306;22.680;2023-02-18T10:59:54;9.24;53.37
70051;SHT30;57391;51.306;22.680;2023-02-18T11:02:28;9.31;53.58
70051;SHT30;57391;51.306;22.680;2023-02-18T11:04:59;9.30;52.54
70051;SHT30;57391;51.306;22.680;2023-02-18T11:07:53;9.36;53.70
70051;SHT30;57391;51.306;22.680;2023-02-18T11:10:25;9.49;52.97
70051;SHT30;57391;51.306;22.680;2023-02-18T11:12:59;9.58;52.47
70051;SHT30;57391;51.306;22.680;2023-02-18T11:15:31;9.64;52.07
70051;SHT30;57391;51.306;22.680;2023-02-18T11:21:28;9.62;52.77
70051;SHT30;57391;51.306;22.680;2023-02-18T11:24:14;9.62;52.65
70051;SHT30;57391;51.306;22.680;2023-02-18T11:26:46;9.54;52.59
70051;SHT30;57391;51.306;22.680;2023-02-18T11:29:20;9.40;52.43
70051;SHT30;57391;51.306;22.680;2023-02-18T11:31:52;9.32;53.16
70051;SHT30;57391;51.306;22.680;2023-02-18T11:34:23;9.38;53.05
70051;SHT30;57391;51.306;22.680;2023-02-18T11:36:55;9.43;52.52
70051;SHT30;57391;51.306;22.680;2023-02-18T11:39:43;9.44;53.77
70051;SHT30;57391;51.306;22.680;2023-02-18T11:42:14;9.40;52.11
70051;SHT30;57391;51.306;22.680;2023-02-18T11:44:49;9.30;52.97
70051;SHT30;57391;51.306;22.680;2023-02-18T11:47:34;9.25;52.71
70051;SHT30;57391;51.306;22.680;2023-02-18T11:52:37;9.10;53.40
70051;SHT30;57391;51.306;22.680;2023-02-18T11:55:19;9.06;54.31
70051;SHT30;57391;51.306;22.680;2023-02-18T11:58:00;9.06;53.80
70051;SHT30;57391;51.306;22.680;2023-02-18T12:00:41;9.01;53.00
70051;SHT30;57391;51.306;22.680;2023-02-18T12:05:43;8.84;53.33
70051;SHT30;57391;51.306;22.680;2023-02-18T12:10:50;8.70;53.13
70051;SHT30;57391;51.306;22.680;2023-02-18T12:13:31;8.66;53.64
70051;SHT30;57391;51.306;22.680;2023-02-18T12:22:42;8.57;53.88
70051;SHT30;57391;51.306;22.680;2023-02-18T12:25:58;8.60;53.39
70051;SHT30;57391;51.306;22.680;2023-02-18T12:36:57;8.77;54.25
70051;SHT30;57391;51.306;22.680;2023-02-18T13:01:53;8.73;54.06
70051;SHT30;57391;51.306;22.680;2023-02-18T13:09:47;8.61;53.23
70051;SHT30;57391;51.306;22.680;2023-02-18T13:12:20;8.58;54.46
70051;SHT30;57391;51.306;22.680;2023-02-18T13:18:15;8.44;54.52
70051;SHT30;57391;51.306;22.680;2023-02-18T13:21:00;8.39;54.79
70051;SHT30;57391;51.306;22.680;2023-02-18T13:23:42;8.34;55.29
70051;SHT30;57391;51.306;22.680;2023-02-18T13:26:20;8.34;55.83
70051;SHT30;57391;51.306;22.680;2023-02-18T13:29:25;8.34;55.30
70051;SHT30;57391;51.306;22.680;2023-02-18T13:32:16;8.34;55.70
70051;SHT30;57391;51.306;22.680;2023-02-18T13:41:50;8.42;54.83
70051;SHT30;57391;51.306;22.680;2023-02-18T13:47:44;8.76;54.11
70051;SHT30;57391;51.306;22.680;2023-02-18T13:52:48;9.08;53.77
70051;SHT30;57391;51.306;22.680;2023-02-18T13:58:35;9.04;53.07
70051;SHT30;57391;51.306;22.680;2023-02-18T14:01:36;8.89;53.48
70051;SHT30;57391;51.306;22.680;2023-02-18T14:10:09;8.40;53.89
70051;SHT30;57391;51.306;22.680;2023-02-18T14:20:45;8.24;55.38
70051;SHT30;57391;51.306;22.680;2023-02-18T14:25:50;8.08;56.01
70051;SHT30;57391;51.306;22.680;2023-02-18T14:28:39;7.98;56.14
70051;SHT30;57391;51.306;22.680;2023-02-18T14:36:39;7.76;57.62
70051;SHT30;57391;51.306;22.680;2023-02-18T14:42:45;7.67;57.73
70051;SHT30;57391;51.306;22.680;2023-02-18T14:51:14;7.61;58.27
70051;SHT30;57391;51.306;22.680;2023-02-18T14:53:45;7.59;58.22
70051;SHT30;57391;51.306;22.680;2023-02-18T14:56:15;7.58;58.16
70051;SHT30;57391;51.306;22.680;2023-02-18T14:58:47;7.58;58.44
70051;SHT30;57391;51.306;22.680;2023-02-18T15:01:22;7.57;58.30
70051;SHT30;57391;51.306;22.680;2023-02-18T15:04:02;7.55;58.42
70051;SHT30;57391;51.306;22.680;2023-02-18T15:09:02;7.53;58.62
70051;SHT30;57391;51.306;22.680;2023-02-18T15:11:48;7.52;58.77
70051;SHT30;57391;51.306;22.680;2023-02-18T15:17:07;7.50;58.75
70051;SHT30;57391;51.306;22.680;2023-02-18T15:19:46;7.49;58.75
70051;SHT30;57391;51.306;22.680;2023-02-18T15:22:22;7.48;58.37
70051;SHT30;57391;51.306;22.680;2023-02-18T15:24:53;7.48;58.65
70051;SHT30;57391;51.306;22.680;2023-02-18T15:27:29;7.48;58.41
70051;SHT30;57391;51.306;22.680;2023-02-18T15:32:55;7.47;58.68
70051;SHT30;57391;51.306;22.680;2023-02-18T15:35:27;7.46;58.38
70051;SHT30;57391;51.306;22.680;2023-02-18T15:37:59;7.46;58.39
70051;SHT30;57391;51.306;22.680;2023-02-18T15:40:29;7.44;58.59
70051;SHT30;57391;51.306;22.680;2023-02-18T15:43:00;7.43;58.93
70051;SHT30;57391;51.306;22.680;2023-02-18T15:45:34;7.41;58.81
70051;SHT30;57391;51.306;22.680;2023-02-18T15:48:12;7.40;58.68
70051;SHT30;57391;51.306;22.680;2023-02-18T15:50:57;7.39;58.82
70051;SHT30;57391;51.306;22.680;2023-02-18T15:53:31;7.38;58.80
70051;SHT30;57391;51.306;22.680;2023-02-18T15:56:05;7.37;58.54
70051;SHT30;57391;51.306;22.680;2023-02-18T15:58:36;7.38;58.38
70051;SHT30;57391;51.306;22.680;2023-02-18T16:01:05;7.39;58.63
70051;SHT30;57391;51.306;22.680;2023-02-18T16:03:50;7.38;58.90
70051;SHT30;57391;51.306;22.680;2023-02-18T16:06:20;7.36;58.85
70051;SHT30;57391;51.306;22.680;2023-02-18T16:09:02;7.34;58.68
70051;SHT30;57391;51.306;22.680;2023-02-18T16:11:30;7.35;58.68
70051;SHT30;57391;51.306;22.680;2023-02-18T16:17:14;7.35;58.70
70051;SHT30;57391;51.306;22.680;2023-02-18T16:19:52;7.35;58.67
70051;SHT30;57391;51.306;22.680;2023-02-18T16:22:24;7.35;58.76
70051;SHT30;57391;51.306;22.680;2023-02-18T16:25:07;7.35;57.68
70051;SHT30;57391;51.306;22.680;2023-02-18T16:30:25;7.35;57.85
70051;SHT30;57391;51.306;22.680;2023-02-18T16:32:56;7.32;58.02
70051;SHT30;57391;51.306;22.680;2023-02-18T16:35:27;7.28;59.01
70051;SHT30;57391;51.306;22.680;2023-02-18T16:37:56;7.24;60.11
70051;SHT30;57391;51.306;22.680;2023-02-18T16:45:53;6.98;62.12
70051;SHT30;57391;51.306;22.680;2023-02-18T16:48:31;6.89;63.12
70051;SHT30;57391;51.306;22.680;2023-02-18T16:51:10;6.76;64.37
70051;SHT30;57391;51.306;22.680;2023-02-18T16:53:47;6.61;65.67
70051;SHT30;57391;51.306;22.680;2023-02-18T16:56:15;6.45;67.00
70051;SHT30;57391;51.306;22.680;2023-02-18T16:58:48;6.32;67.89
70051;SHT30;57391;51.306;22.680;2023-02-18T17:01:26;6.19;69.27
70051;SHT30;57391;51.306;22.680;2023-02-18T17:04:00;6.01;70.75
70051;SHT30;57391;51.306;22.680;2023-02-18T17:06:30;5.81;71.71
70051;SHT30;57391;51.306;22.680;2023-02-18T17:08:59;5.64;72.54
70051;SHT30;57391;51.306;22.680;2023-02-18T17:11:30;5.50;73.01
70051;SHT30;57391;51.306;22.680;2023-02-18T17:14:00;5.38;73.88
70051;SHT30;57391;51.306;22.680;2023-02-18T17:16:30;5.30;74.27
70051;SHT30;57391;51.306;22.680;2023-02-18T17:18:58;5.20;75.05
70051;SHT30;57391;51.306;22.680;2023-02-18T17:21:25;5.10;75.75
70051;SHT30;57391;51.306;22.680;2023-02-18T17:23:52;5.00;75.85
70051;SHT30;57391;51.306;22.680;2023-02-18T17:26:21;4.94;76.17
70051;SHT30;57391;51.306;22.680;2023-02-18T17:28:56;4.87;76.48
70051;SHT30;57391;51.306;22.680;2023-02-18T17:31:30;4.83;76.54
70051;SHT30;57391;51.306;22.680;2023-02-18T17:34:06;4.80;77.02
70051;SHT30;57391;51.306;22.680;2023-02-18T17:36:37;4.77;77.21
70051;SHT30;57391;51.306;22.680;2023-02-18T17:39:14;4.73;77.43
70051;SHT30;57391;51.306;22.680;2023-02-18T17:41:43;4.71;77.67
70051;SHT30;57391;51.306;22.680;2023-02-18T17:44:15;4.69;77.85
70051;SHT30;57391;51.306;22.680;2023-02-18T17:46:45;4.66;78.00
70051;SHT30;57391;51.306;22.680;2023-02-18T17:49:15;4.64;78.05
70051;SHT30;57391;51.306;22.680;2023-02-18T17:51:43;4.62;78.16
70051;SHT30;57391;51.306;22.680;2023-02-18T17:54:18;4.61;78.31
70051;SHT30;57391;51.306;22.680;2023-02-18T17:56:48;4.61;78.37
70051;SHT30;57391;51.306;22.680;2023-02-18T17:59:16;4.60;78.51
70051;SHT30;57391;51.306;22.680;2023-02-18T18:01:43;4.59;78.49
70051;SHT30;57391;51.306;22.680;2023-02-18T18:04:14;4.59;78.60
70051;SHT30;57391;51.306;22.680;2023-02-18T18:06:46;4.59;78.73
70051;SHT30;57391;51.306;22.680;2023-02-18T18:09:14;4.59;78.83
70051;SHT30;57391;51.306;22.680;2023-02-18T18:11:42;4.60;78.92
70051;SHT30;57391;51.306;22.680;2023-02-18T18:14:10;4.59;78.92
70051;SHT30;57391;51.306;22.680;2023-02-18T18:16:40;4.59;78.90
70051;SHT30;57391;51.306;22.680;2023-02-18T18:19:07;4.61;79.09
70051;SHT30;57391;51.306;22.680;2023-02-18T18:21:35;4.61;79.13
70051;SHT30;57391;51.306;22.680;2023-02-18T18:24:03;4.59;79.21
70051;SHT30;57391;51.306;22.680;2023-02-18T18:26:30;4.58;79.28
70051;SHT30;57391;51.306;22.680;2023-02-18T18:28:57;4.58;79.35
70051;SHT30;57391;51.306;22.680;2023-02-18T18:31:25;4.59;79.40
70051;SHT30;57391;51.306;22.680;2023-02-18T18:33:51;4.61;79.44
70051;SHT30;57391;51.306;22.680;2023-02-18T18:36:19;4.62;79.52
70051;SHT30;57391;51.306;22.680;2023-02-18T18:38:49;4.62;79.51
70051;SHT30;57391;51.306;22.680;2023-02-18T18:41:18;4.63;79.51
70051;SHT30;57391;51.306;22.680;2023-02-18T18:43:47;4.62;79.64
70051;SHT30;57391;51.306;22.680;2023-02-18T18:46:15;4.63;79.76
70051;SHT30;57391;51.306;22.680;2023-02-18T18:48:42;4.63;79.81
70051;SHT30;57391;51.306;22.680;2023-02-18T18:51:13;4.64;79.83
70051;SHT30;57391;51.306;22.680;2023-02-18T18:53:43;4.64;79.99
70051;SHT30;57391;51.306;22.680;2023-02-18T18:56:11;4.65;80.04
70051;SHT30;57391;51.306;22.680;2023-02-18T18:58:38;4.65;80.11
70051;SHT30;57391;51.306;22.680;2023-02-18T19:01:11;4.64;80.21
70051;SHT30;57391;51.306;22.680;2023-02-18T19:03:45;4.64;80.26